createdAt,value
2022-08-13T00:00:11.174Z,57.00
2022-08-13T00:00:23.415Z,57.30
2022-08-13T00:00:36.855Z,57.80
2022-08-13T00:01:00.864Z,57.40
2022-08-13T00:01:14.232Z,57.20
2022-08-13T00:01:32.010Z,57.10
2022-08-13T00:01:45.997Z,56.90
2022-08-13T00:02:12.058Z,56.90
2022-08-13T00:02:29.528Z,56.90
2022-08-13T00:02:43.733Z,56.70
2022-08-13T00:03:00.373Z,57.10
2022-08-13T00:03:58.116Z,57.10
2022-08-13T00:03:59.280Z,57.40
2022-08-13T00:04:20.655Z,57.50
2022-08-13T00:04:45.903Z,57.20
2022-08-13T00:05:41.384Z,57.10
2022-08-13T00:05:42.507Z,57.20
2022-08-13T00:05:55.905Z,57.30
2022-08-13T00:06:21.640Z,57.20
2022-08-13T00:06:37.217Z,57.20
2022-08-13T00:07:08.917Z,57.10
2022-08-13T00:07:20.737Z,57.40
2022-08-13T00:07:33.732Z,57.20
2022-08-13T00:07:50.155Z,57.10
2022-08-13T00:08:02.965Z,57.20
2022-08-13T00:08:15.948Z,57.10
2022-08-13T00:08:27.745Z,57.20
2022-08-13T00:08:40.569Z,57.10
2022-08-13T00:08:53.065Z,56.90
2022-08-13T00:09:17.486Z,56.70
2022-08-13T00:09:39.942Z,57.00
2022-08-13T00:09:53.094Z,56.90
2022-08-13T00:10:07.540Z,57.30
2022-08-13T00:10:29.748Z,57.10
2022-08-13T00:10:43.323Z,57.10
2022-08-13T00:10:55.492Z,57.20
2022-08-13T00:11:30.739Z,57.30
2022-08-13T00:12:07.793Z,57.30
2022-08-13T00:12:45.579Z,56.90
2022-08-13T00:13:04.939Z,56.90
2022-08-13T00:13:19.245Z,56.80
2022-08-13T00:13:41.192Z,56.80
2022-08-13T00:13:56.530Z,56.90
2022-08-13T00:14:12.108Z,57.00
2022-08-13T00:14:37.092Z,57.20
2022-08-13T00:14:53.258Z,57.30
2022-08-13T00:15:12.827Z,57.20
2022-08-13T00:15:39.999Z,57.30
2022-08-13T00:15:55.766Z,57.00
2022-08-13T00:16:09.677Z,57.20
2022-08-13T00:16:22.774Z,57.20
2022-08-13T00:16:35.200Z,57.30
2022-08-13T00:16:50.902Z,57.40
2022-08-13T00:17:09.155Z,57.40
2022-08-13T00:17:23.645Z,57.40
2022-08-13T00:18:03.667Z,57.40
2022-08-13T00:18:29.804Z,57.50
2022-08-13T00:18:41.833Z,57.70
2022-08-13T00:18:53.583Z,57.70
2022-08-13T00:19:05.520Z,57.60
2022-08-13T00:19:17.605Z,57.40
2022-08-13T00:19:31.308Z,57.20
2022-08-13T00:19:44.637Z,57.30
2022-08-13T00:20:05.504Z,57.50
2022-08-13T00:20:21.699Z,57.70
2022-08-13T00:20:40.834Z,57.50
2022-08-13T00:20:57.260Z,57.60
2022-08-13T00:21:11.854Z,57.60
2022-08-13T00:21:24.471Z,57.70
2022-08-13T00:21:58.936Z,57.70
2022-08-13T00:22:31.795Z,58.00
2022-08-13T00:22:43.864Z,57.30
2022-08-13T00:23:19.682Z,57.30
2022-08-13T00:23:57.780Z,57.80
2022-08-13T00:24:05.315Z,57.90
2022-08-13T00:24:39.486Z,57.90
2022-08-13T00:25:09.399Z,57.90
2022-08-13T00:25:22.825Z,58.20
2022-08-13T00:25:43.103Z,58.10
2022-08-13T00:25:58.614Z,58.00
2022-08-13T00:26:16.974Z,57.90
2022-08-13T00:26:42.874Z,57.80
2022-08-13T00:27:00.976Z,57.90
2022-08-13T00:27:12.798Z,57.50
2022-08-13T00:27:42.057Z,57.30
2022-08-13T00:28:03.000Z,58.30
2022-08-13T00:28:20.030Z,57.50
2022-08-13T00:28:33.174Z,57.60
2022-08-13T00:28:44.886Z,57.60
2022-08-13T00:28:58.561Z,57.60
2022-08-13T00:29:11.160Z,57.80
2022-08-13T00:29:25.975Z,57.90
2022-08-13T00:29:38.894Z,57.90
2022-08-13T00:29:57.703Z,57.90
2022-08-13T00:30:12.816Z,58.10
2022-08-13T00:30:34.498Z,58.40
2022-08-13T00:30:48.343Z,58.10
2022-08-13T00:31:00.288Z,57.90
2022-08-13T00:31:13.687Z,57.90
2022-08-13T00:31:33.543Z,58.00
2022-08-13T00:31:50.125Z,58.20
2022-08-13T00:32:01.841Z,58.20
2022-08-13T00:32:15.424Z,58.00
2022-08-13T00:32:32.003Z,58.20
2022-08-13T00:32:46.070Z,58.20
2022-08-13T00:33:14.412Z,58.20
2022-08-13T00:33:44.153Z,58.10
2022-08-13T00:33:59.775Z,58.20
2022-08-13T00:34:11.552Z,58.30
2022-08-13T00:34:25.129Z,58.20
2022-08-13T00:34:36.929Z,57.90
2022-08-13T00:34:50.425Z,58.10
2022-08-13T00:35:02.640Z,57.90
2022-08-13T00:35:17.880Z,57.60
2022-08-13T00:35:40.420Z,57.60
2022-08-13T00:35:53.139Z,57.70
2022-08-13T00:36:05.497Z,57.90
2022-08-13T00:36:34.773Z,57.80
2022-08-13T00:36:49.376Z,57.90
2022-08-13T00:37:23.669Z,58.10
2022-08-13T00:37:49.453Z,57.70
2022-08-13T00:38:12.655Z,58.10
2022-08-13T00:38:36.314Z,58.10
2022-08-13T00:38:49.422Z,57.90
2022-08-13T00:39:10.758Z,57.80
2022-08-13T00:39:25.471Z,57.90
2022-08-13T00:40:16.341Z,57.80
2022-08-13T00:40:18.020Z,57.90
2022-08-13T00:40:55.854Z,58.40
2022-08-13T00:41:17.145Z,58.00
2022-08-13T00:41:59.010Z,58.40
2022-08-13T00:42:10.451Z,58.40
2022-08-13T00:42:23.006Z,58.10
2022-08-13T00:42:51.129Z,58.00
2022-08-13T00:43:05.449Z,58.20
2022-08-13T00:43:18.174Z,58.30
2022-08-13T00:43:35.274Z,58.70
2022-08-13T00:43:47.281Z,58.40
2022-08-13T00:43:59.261Z,57.90
2022-08-13T00:44:12.891Z,57.80
2022-08-13T00:44:24.785Z,58.30
2022-08-13T00:44:37.018Z,58.40
2022-08-13T00:44:49.002Z,58.40
2022-08-13T00:45:01.122Z,58.60
2022-08-13T00:45:20.567Z,58.40
2022-08-13T00:45:33.392Z,58.20
2022-08-13T00:45:45.293Z,58.10
2022-08-13T00:45:57.501Z,58.00
2022-08-13T00:46:09.681Z,58.20
2022-08-13T00:46:22.373Z,58.10
2022-08-13T00:46:35.893Z,58.40
2022-08-13T00:46:47.776Z,58.30
2022-08-13T00:47:18.915Z,58.30
2022-08-13T00:47:51.437Z,58.30
2022-08-13T00:48:22.981Z,58.50
2022-08-13T00:48:46.296Z,58.30
2022-08-13T00:49:04.653Z,58.50
2022-08-13T00:49:17.614Z,58.90
2022-08-13T00:49:29.504Z,58.90
2022-08-13T00:50:00.485Z,58.60
2022-08-13T00:50:14.234Z,58.50
2022-08-13T00:50:28.139Z,58.30
2022-08-13T00:50:41.225Z,58.10
2022-08-13T00:50:54.968Z,58.50
2022-08-13T00:51:10.022Z,58.90
2022-08-13T00:51:42.365Z,58.70
2022-08-13T00:51:58.828Z,58.70
2022-08-13T00:52:11.708Z,59.00
2022-08-13T00:52:27.681Z,58.50
2022-08-13T00:52:40.565Z,58.40
2022-08-13T00:52:52.416Z,58.60
2022-08-13T00:53:04.390Z,58.70
2022-08-13T00:53:23.687Z,58.60
2022-08-13T00:53:42.379Z,58.80
2022-08-13T00:54:06.098Z,58.50
2022-08-13T00:54:23.463Z,58.50
2022-08-13T00:54:35.257Z,58.80
2022-08-13T00:54:56.193Z,58.70
2022-08-13T00:55:21.415Z,58.80
2022-08-13T00:55:35.895Z,58.60
2022-08-13T00:55:49.726Z,58.70
2022-08-13T00:56:01.574Z,58.80
2022-08-13T00:56:13.695Z,58.60
2022-08-13T00:56:26.747Z,58.70
2022-08-13T00:56:39.844Z,58.70
2022-08-13T00:56:53.407Z,58.80
2022-08-13T00:57:07.547Z,58.60
2022-08-13T00:57:19.478Z,58.60
2022-08-13T00:57:39.690Z,58.60
2022-08-13T00:57:53.240Z,58.70
2022-08-13T00:58:05.178Z,59.00
2022-08-13T00:58:18.211Z,59.10
2022-08-13T00:58:30.038Z,59.00
2022-08-13T00:58:45.506Z,58.70
2022-08-13T00:58:58.103Z,58.80
2022-08-13T00:59:14.425Z,58.70
2022-08-13T00:59:26.637Z,58.70
2022-08-13T00:59:55.589Z,58.60
2022-08-13T01:00:12.655Z,58.50
2022-08-13T01:00:26.089Z,58.70
2022-08-13T01:00:39.662Z,58.60
2022-08-13T01:00:58.926Z,58.60
2022-08-13T01:01:17.666Z,58.80
2022-08-13T01:01:36.701Z,58.80
2022-08-13T01:01:49.837Z,59.10
2022-08-13T01:02:02.111Z,59.40
2022-08-13T01:02:14.382Z,59.20
2022-08-13T01:02:32.508Z,59.10
2022-08-13T01:02:56.001Z,59.20
2022-08-13T01:03:14.463Z,58.80
2022-08-13T01:04:09.795Z,58.90
2022-08-13T01:04:11.027Z,59.00
2022-08-13T01:04:24.853Z,58.80
2022-08-13T01:04:39.765Z,59.30
2022-08-13T01:04:54.825Z,59.20
2022-08-13T01:05:10.752Z,59.10
2022-08-13T01:05:25.722Z,58.80
2022-08-13T01:05:44.458Z,58.80
2022-08-13T01:06:00.710Z,59.20
2022-08-13T01:06:12.487Z,59.50
2022-08-13T01:06:28.147Z,59.40
2022-08-13T01:06:41.465Z,59.10
2022-08-13T01:07:02.969Z,59.20
2022-08-13T01:07:47.822Z,59.60
2022-08-13T01:07:58.091Z,59.30
2022-08-13T01:08:17.934Z,59.60
2022-08-13T01:08:35.447Z,59.50
2022-08-13T01:08:54.086Z,59.80
2022-08-13T01:10:16.346Z,59.20
2022-08-13T01:10:17.249Z,59.60
2022-08-13T01:10:20.099Z,59.40
2022-08-13T01:10:32.093Z,59.50
2022-08-13T01:10:55.306Z,59.70
2022-08-13T01:11:16.567Z,59.60
2022-08-13T01:11:34.064Z,59.30
2022-08-13T01:11:46.576Z,59.70
2022-08-13T01:11:59.319Z,59.50
2022-08-13T01:12:16.892Z,59.50
2022-08-13T01:12:28.802Z,59.40
2022-08-13T01:12:41.005Z,59.70
2022-08-13T01:12:54.441Z,59.60
2022-08-13T01:13:10.347Z,59.50
2022-08-13T01:13:26.696Z,59.60
2022-08-13T01:13:42.448Z,59.70
2022-08-13T01:13:54.721Z,59.40
2022-08-13T01:14:09.023Z,59.50
2022-08-13T01:14:20.714Z,59.70
2022-08-13T01:14:37.519Z,59.70
2022-08-13T01:14:49.545Z,59.70
2022-08-13T01:15:03.867Z,59.50
2022-08-13T01:15:21.241Z,59.50
2022-08-13T01:15:52.205Z,60.00
2022-08-13T01:16:06.205Z,59.90
2022-08-13T01:16:23.624Z,59.90
2022-08-13T01:16:37.766Z,59.70
2022-08-13T01:16:49.954Z,59.50
2022-08-13T01:17:07.239Z,59.40
2022-08-13T01:17:22.081Z,59.20
2022-08-13T01:17:47.337Z,59.30
2022-08-13T01:18:02.105Z,59.60
2022-08-13T01:18:19.274Z,59.50
2022-08-13T01:18:33.043Z,59.40
2022-08-13T01:18:47.189Z,59.50
2022-08-13T01:18:58.934Z,59.60
2022-08-13T01:19:13.679Z,59.60
2022-08-13T01:19:52.260Z,59.70
2022-08-13T01:20:02.865Z,59.50
2022-08-13T01:20:33.589Z,59.90
2022-08-13T01:20:47.745Z,59.70
2022-08-13T01:21:10.699Z,59.60
2022-08-13T01:21:39.779Z,59.90
2022-08-13T01:21:53.364Z,59.90
2022-08-13T01:22:07.451Z,59.90
2022-08-13T01:22:29.891Z,60.00
2022-08-13T01:22:45.888Z,60.00
2022-08-13T01:22:57.654Z,59.90
2022-08-13T01:23:10.057Z,60.10
2022-08-13T01:23:24.293Z,60.20
2022-08-13T01:24:02.973Z,60.30
2022-08-13T01:24:15.270Z,59.80
2022-08-13T01:24:27.211Z,59.80
2022-08-13T01:24:38.934Z,59.80
2022-08-13T01:24:53.964Z,59.80
2022-08-13T01:25:08.710Z,60.10
2022-08-13T01:25:25.289Z,59.90
2022-08-13T01:25:43.382Z,59.90
2022-08-13T01:26:09.524Z,59.80
2022-08-13T01:26:22.415Z,59.70
2022-08-13T01:26:37.238Z,59.70
2022-08-13T01:26:52.575Z,60.00
2022-08-13T01:27:06.085Z,59.70
2022-08-13T01:27:25.079Z,59.80
2022-08-13T01:27:38.456Z,60.30
2022-08-13T01:27:54.510Z,60.30
2022-08-13T01:28:09.161Z,60.10
2022-08-13T01:28:23.902Z,60.20
2022-08-13T01:28:42.854Z,60.40
2022-08-13T01:28:54.942Z,60.50
2022-08-13T01:29:10.979Z,60.80
2022-08-13T01:29:22.982Z,60.50
2022-08-13T01:29:37.066Z,60.30
2022-08-13T01:29:53.761Z,60.20
2022-08-13T01:30:10.350Z,60.30
2022-08-13T01:30:22.890Z,60.30
2022-08-13T01:30:35.053Z,60.40
2022-08-13T01:30:53.148Z,60.50
2022-08-13T01:31:21.102Z,60.50
2022-08-13T01:31:35.548Z,59.90
2022-08-13T01:31:47.817Z,60.30
2022-08-13T01:32:00.204Z,60.30
2022-08-13T01:32:16.543Z,59.90
2022-08-13T01:32:54.233Z,59.90
2022-08-13T01:33:03.963Z,60.50
2022-08-13T01:33:18.285Z,60.70
2022-08-13T01:33:35.478Z,60.60
2022-08-13T01:33:52.931Z,60.30
2022-08-13T01:34:05.855Z,61.10
2022-08-13T01:34:24.739Z,60.60
2022-08-13T01:34:37.034Z,60.60
2022-08-13T01:34:52.134Z,60.60
2022-08-13T01:35:06.656Z,60.50
2022-08-13T01:35:21.170Z,60.50
2022-08-13T01:35:33.082Z,60.70
2022-08-13T01:35:52.106Z,60.60
2022-08-13T01:36:05.108Z,60.60
2022-08-13T01:36:54.964Z,60.50
2022-08-13T01:36:58.238Z,60.10
2022-08-13T01:37:10.094Z,60.50
2022-08-13T01:37:23.093Z,61.20
2022-08-13T01:37:40.885Z,60.50
2022-08-13T01:38:03.974Z,60.30
2022-08-13T01:38:16.369Z,60.00
2022-08-13T01:38:35.558Z,60.20
2022-08-13T01:38:47.291Z,60.40
2022-08-13T01:39:05.363Z,60.30
2022-08-13T01:39:19.475Z,60.40
2022-08-13T01:39:38.838Z,60.30
2022-08-13T01:39:52.103Z,60.50
2022-08-13T01:40:05.951Z,60.70
2022-08-13T01:40:18.259Z,60.60
2022-08-13T01:40:32.106Z,60.90
2022-08-13T01:40:45.622Z,60.80
2022-08-13T01:41:00.029Z,60.90
2022-08-13T01:41:11.813Z,60.80
2022-08-13T01:41:28.741Z,60.60
2022-08-13T01:41:55.102Z,60.70
2022-08-13T01:42:10.630Z,60.80
2022-08-13T01:42:32.848Z,60.90
2022-08-13T01:42:49.936Z,60.80
2022-08-13T01:43:22.554Z,61.10
2022-08-13T01:43:49.723Z,61.00
2022-08-13T01:44:16.820Z,61.10
2022-08-13T01:44:33.885Z,60.90
2022-08-13T01:44:46.389Z,60.40
2022-08-13T01:44:58.145Z,60.40
2022-08-13T01:45:10.858Z,60.40
2022-08-13T01:45:22.674Z,60.40
2022-08-13T01:45:35.840Z,60.20
2022-08-13T01:45:51.799Z,60.50
2022-08-13T01:46:03.962Z,60.80
2022-08-13T01:46:17.850Z,60.70
2022-08-13T01:46:49.740Z,60.70
2022-08-13T01:47:25.266Z,60.60
2022-08-13T01:48:12.932Z,61.00
2022-08-13T01:48:48.026Z,61.20
2022-08-13T01:49:19.385Z,60.70
2022-08-13T01:49:49.818Z,60.20
2022-08-13T01:50:20.510Z,60.40
2022-08-13T01:50:37.374Z,60.10
2022-08-13T01:50:51.921Z,60.50
2022-08-13T01:51:12.288Z,60.50
2022-08-13T01:51:40.320Z,60.60
2022-08-13T01:51:55.792Z,60.60
2022-08-13T01:52:07.521Z,60.70
2022-08-13T01:52:20.390Z,60.50
2022-08-13T01:52:33.595Z,60.40
2022-08-13T01:52:46.525Z,60.30
2022-08-13T01:53:08.818Z,60.50
2022-08-13T01:53:22.719Z,60.70
2022-08-13T01:53:35.001Z,60.50
2022-08-13T01:53:48.079Z,60.90
2022-08-13T01:54:00.310Z,60.80
2022-08-13T01:54:39.273Z,60.80
2022-08-13T01:54:45.481Z,60.60
2022-08-13T01:54:57.360Z,60.80
2022-08-13T01:55:09.860Z,60.70
2022-08-13T01:55:24.502Z,60.70
2022-08-13T01:56:05.836Z,60.40
2022-08-13T01:56:33.453Z,60.50
2022-08-13T01:56:45.169Z,60.50
2022-08-13T01:56:59.825Z,60.40
2022-08-13T01:57:12.719Z,60.70
2022-08-13T01:57:44.137Z,60.60
2022-08-13T01:57:56.689Z,60.50
2022-08-13T01:58:28.610Z,60.40
2022-08-13T01:59:00.654Z,60.10
2022-08-13T01:59:14.062Z,60.20
2022-08-13T01:59:25.919Z,60.60
2022-08-13T02:00:01.730Z,60.60
2022-08-13T02:00:28.060Z,60.10
2022-08-13T02:00:41.430Z,60.00
2022-08-13T02:00:55.611Z,60.00
2022-08-13T02:01:08.933Z,60.20
2022-08-13T02:01:41.794Z,60.30
2022-08-13T02:01:55.345Z,60.30
2022-08-13T02:02:31.420Z,60.90
2022-08-13T02:02:49.566Z,60.50
2022-08-13T02:03:05.531Z,60.50
2022-08-13T02:03:18.722Z,60.60
2022-08-13T02:03:31.781Z,60.30
2022-08-13T02:03:48.180Z,60.40
2022-08-13T02:04:03.565Z,60.60
2022-08-13T02:04:17.894Z,60.60
2022-08-13T02:04:36.338Z,60.80
2022-08-13T02:04:55.889Z,60.70
2022-08-13T02:06:20.664Z,60.70
2022-08-13T02:06:23.125Z,60.60
2022-08-13T02:06:28.367Z,60.60
2022-08-13T02:06:44.930Z,60.30
2022-08-13T02:07:05.785Z,60.30
2022-08-13T02:07:23.552Z,59.60
2022-08-13T02:08:02.394Z,59.50
2022-08-13T02:08:10.042Z,59.60
2022-08-13T02:08:23.459Z,59.10
2022-08-13T02:08:41.524Z,58.90
2022-08-13T02:08:58.901Z,58.70
2022-08-13T02:09:23.635Z,58.70
2022-08-13T02:09:59.158Z,58.90
2022-08-13T02:10:14.466Z,59.20
2022-08-13T02:10:27.386Z,59.10
2022-08-13T02:10:43.542Z,59.00
2022-08-13T02:10:55.762Z,59.00
2022-08-13T02:11:08.152Z,59.10
2022-08-13T02:11:20.262Z,59.20
2022-08-13T02:11:42.318Z,59.20
2022-08-13T02:11:58.913Z,59.20
2022-08-13T02:12:33.262Z,59.40
2022-08-13T02:12:48.213Z,59.50
2022-08-13T02:13:00.215Z,59.60
2022-08-13T02:13:16.700Z,59.20
2022-08-13T02:13:35.312Z,58.80
2022-08-13T02:13:50.006Z,58.40
2022-08-13T02:14:04.580Z,58.40
2022-08-13T02:14:19.639Z,58.40
2022-08-13T02:14:34.934Z,58.40
2022-08-13T02:14:46.718Z,58.60
2022-08-13T02:15:06.942Z,58.80
2022-08-13T02:15:41.358Z,59.00
2022-08-13T02:15:51.790Z,59.20
2022-08-13T02:16:04.047Z,58.70
2022-08-13T02:16:16.107Z,58.00
2022-08-13T02:16:29.929Z,57.40
2022-08-13T02:16:47.167Z,57.20
2022-08-13T02:18:02.716Z,56.40
2022-08-13T02:18:03.158Z,57.50
2022-08-13T02:18:19.886Z,56.90
2022-08-13T02:18:31.877Z,56.80
2022-08-13T02:18:44.987Z,57.10
2022-08-13T02:18:56.686Z,57.00
2022-08-13T02:19:19.396Z,56.60
2022-08-13T02:19:44.831Z,56.40
2022-08-13T02:19:56.687Z,56.10
2022-08-13T02:20:10.044Z,56.40
2022-08-13T02:20:22.879Z,56.10
2022-08-13T02:20:36.221Z,56.20
2022-08-13T02:20:57.766Z,55.90
2022-08-13T02:21:11.275Z,55.70
2022-08-13T02:21:38.793Z,55.80
2022-08-13T02:21:51.226Z,55.70
2022-08-13T02:22:07.761Z,55.60
2022-08-13T02:22:22.036Z,55.40
2022-08-13T02:22:37.516Z,55.30
2022-08-13T02:22:50.030Z,55.10
2022-08-13T02:23:04.543Z,55.30
2022-08-13T02:23:53.303Z,55.20
2022-08-13T02:24:04.852Z,55.20
2022-08-13T02:24:21.205Z,55.00
2022-08-13T02:24:33.318Z,54.90
2022-08-13T02:24:53.533Z,54.60
2022-08-13T02:25:06.716Z,54.60
2022-08-13T02:25:25.602Z,54.80
2022-08-13T02:25:39.402Z,54.70
2022-08-13T02:25:58.374Z,54.70
2022-08-13T02:26:11.735Z,54.60
2022-08-13T02:26:30.360Z,54.60
2022-08-13T02:26:43.889Z,54.70
2022-08-13T02:27:05.806Z,54.40
2022-08-13T02:27:19.600Z,54.20
2022-08-13T02:27:35.610Z,54.10
2022-08-13T02:27:58.070Z,54.30
2022-08-13T02:28:12.897Z,54.70
2022-08-13T02:28:42.194Z,54.70
2022-08-13T02:28:55.791Z,54.50
2022-08-13T02:29:10.284Z,54.50
2022-08-13T02:29:25.530Z,54.50
2022-08-13T02:29:38.663Z,54.50
2022-08-13T02:29:54.119Z,54.40
2022-08-13T02:30:08.892Z,54.30
2022-08-13T02:30:23.050Z,54.40
2022-08-13T02:30:37.348Z,54.30
2022-08-13T02:30:54.880Z,54.30
2022-08-13T02:31:21.545Z,54.40
2022-08-13T02:32:15.312Z,54.20
2022-08-13T02:32:16.970Z,54.10
2022-08-13T02:32:29.820Z,54.10
2022-08-13T02:32:41.837Z,54.20
2022-08-13T02:32:54.934Z,54.30
2022-08-13T02:33:09.254Z,54.80
2022-08-13T02:33:29.618Z,54.30
2022-08-13T02:33:54.953Z,54.50
2022-08-13T02:34:08.337Z,54.30
2022-08-13T02:34:20.741Z,54.40
2022-08-13T02:34:32.495Z,54.40
2022-08-13T02:34:48.878Z,54.30
2022-08-13T02:35:00.625Z,54.10
2022-08-13T02:35:20.073Z,54.10
2022-08-13T02:35:46.881Z,54.10
2022-08-13T02:35:59.335Z,54.10
2022-08-13T02:36:11.689Z,54.10
2022-08-13T02:36:26.242Z,54.10
2022-08-13T02:36:41.619Z,54.10
2022-08-13T02:37:32.901Z,54.10
2022-08-13T02:37:46.010Z,54.20
2022-08-13T02:38:01.356Z,54.00
2022-08-13T02:38:16.071Z,54.10
2022-08-13T02:38:30.997Z,54.00
2022-08-13T02:38:47.940Z,53.90
2022-08-13T02:39:05.498Z,54.10
2022-08-13T02:39:17.443Z,54.10
2022-08-13T02:39:29.214Z,54.20
2022-08-13T02:39:55.625Z,54.20
2022-08-13T02:40:28.421Z,54.10
2022-08-13T02:41:00.609Z,54.10
2022-08-13T02:41:30.832Z,54.20
2022-08-13T02:41:51.418Z,54.40
2022-08-13T02:42:05.545Z,54.40
2022-08-13T02:42:20.678Z,54.20
2022-08-13T02:42:33.707Z,54.20
2022-08-13T02:42:48.584Z,54.30
2022-08-13T02:43:00.536Z,54.90
2022-08-13T02:43:13.302Z,54.40
2022-08-13T02:43:26.102Z,54.50
2022-08-13T02:43:42.788Z,54.50
2022-08-13T02:44:06.751Z,54.40
2022-08-13T02:44:34.862Z,54.30
2022-08-13T02:44:50.744Z,54.40
2022-08-13T02:45:04.804Z,54.60
2022-08-13T02:45:16.735Z,54.80
2022-08-13T02:45:35.969Z,54.80
2022-08-13T02:45:47.790Z,54.80
2022-08-13T02:46:01.835Z,54.70
2022-08-13T02:46:15.230Z,54.50
2022-08-13T02:46:27.914Z,54.50
2022-08-13T02:46:41.150Z,54.40
2022-08-13T02:46:52.911Z,54.30
2022-08-13T02:47:06.045Z,54.40
2022-08-13T02:47:28.222Z,54.30
2022-08-13T02:47:46.830Z,54.30
2022-08-13T02:47:58.687Z,54.20
2022-08-13T02:48:19.338Z,54.20
2022-08-13T02:48:34.021Z,54.20
2022-08-13T02:48:45.805Z,54.40
2022-08-13T02:49:01.426Z,54.60
2022-08-13T02:49:16.875Z,54.50
2022-08-13T02:49:30.354Z,54.40
2022-08-13T02:50:00.849Z,54.40
2022-08-13T02:50:32.652Z,54.40
2022-08-13T02:50:56.438Z,54.40
2022-08-13T02:51:11.993Z,54.30
2022-08-13T02:52:06.503Z,54.30
2022-08-13T02:52:06.730Z,54.30
2022-08-13T02:52:22.916Z,54.40
2022-08-13T02:52:34.902Z,54.40
2022-08-13T02:52:50.093Z,54.30
2022-08-13T02:53:29.992Z,54.40
2022-08-13T02:53:55.021Z,54.60
2022-08-13T02:54:08.050Z,54.40
2022-08-13T02:54:22.053Z,54.60
2022-08-13T02:54:45.548Z,54.50
2022-08-13T02:55:08.564Z,54.40
2022-08-13T02:55:20.820Z,54.60
2022-08-13T02:55:34.369Z,54.50
2022-08-13T02:55:48.945Z,54.50
2022-08-13T02:56:03.384Z,54.60
2022-08-13T02:56:17.470Z,54.60
2022-08-13T02:56:29.675Z,54.70
2022-08-13T02:56:41.568Z,54.90
2022-08-13T02:56:53.297Z,54.90
2022-08-13T02:57:05.408Z,55.00
2022-08-13T02:57:17.081Z,54.90
2022-08-13T02:57:31.770Z,54.90
2022-08-13T02:57:44.212Z,54.80
2022-08-13T02:58:03.345Z,54.80
2022-08-13T02:58:16.269Z,55.00
2022-08-13T02:58:28.245Z,55.00
2022-08-13T02:58:42.272Z,55.00
2022-08-13T02:58:56.409Z,55.10
2022-08-13T02:59:42.769Z,54.90
2022-08-13T03:00:05.263Z,54.70
2022-08-13T03:00:15.949Z,54.90
2022-08-13T03:00:30.724Z,55.10
2022-08-13T03:00:42.893Z,55.10
2022-08-13T03:00:58.718Z,55.00
2022-08-13T03:01:13.096Z,55.00
2022-08-13T03:01:27.804Z,55.00
2022-08-13T03:01:54.648Z,54.90
2022-08-13T03:02:08.246Z,54.80
2022-08-13T03:02:23.765Z,54.90
2022-08-13T03:02:39.682Z,54.80
2022-08-13T03:02:52.309Z,54.80
2022-08-13T03:03:05.141Z,54.90
2022-08-13T03:03:23.239Z,54.90
2022-08-13T03:03:39.262Z,54.90
2022-08-13T03:03:54.738Z,54.90
2022-08-13T03:04:09.006Z,54.90
2022-08-13T03:04:20.733Z,55.10
2022-08-13T03:04:45.458Z,55.00
2022-08-13T03:04:57.203Z,54.90
2022-08-13T03:05:14.473Z,54.90
2022-08-13T03:05:29.831Z,54.80
2022-08-13T03:06:00.372Z,54.70
2022-08-13T03:06:12.531Z,55.10
2022-08-13T03:06:26.383Z,54.90
2022-08-13T03:06:38.233Z,54.80
2022-08-13T03:06:55.633Z,54.80
2022-08-13T03:07:07.509Z,54.90
2022-08-13T03:07:20.556Z,54.70
2022-08-13T03:07:32.497Z,54.70
2022-08-13T03:08:07.241Z,54.70
2022-08-13T03:08:39.904Z,54.80
2022-08-13T03:08:54.784Z,54.80
2022-08-13T03:09:06.685Z,55.00
2022-08-13T03:09:21.913Z,54.90
2022-08-13T03:09:35.611Z,54.90
2022-08-13T03:09:59.476Z,54.90
2022-08-13T03:10:12.957Z,54.80
2022-08-13T03:10:34.610Z,54.80
2022-08-13T03:10:54.534Z,54.70
2022-08-13T03:11:08.861Z,55.00
2022-08-13T03:11:21.138Z,54.90
2022-08-13T03:11:34.186Z,54.60
2022-08-13T03:11:59.146Z,54.50
2022-08-13T03:12:15.441Z,54.60
2022-08-13T03:12:31.745Z,54.60
2022-08-13T03:13:00.327Z,54.70
2022-08-13T03:13:22.006Z,54.70
2022-08-13T03:13:44.476Z,54.80
2022-08-13T03:13:58.143Z,54.80
2022-08-13T03:14:10.019Z,55.00
2022-08-13T03:14:22.082Z,55.20
2022-08-13T03:14:41.164Z,55.00
2022-08-13T03:14:54.796Z,55.00
2022-08-13T03:15:07.452Z,55.00
2022-08-13T03:15:21.523Z,54.90
2022-08-13T03:15:34.711Z,54.90
2022-08-13T03:15:54.672Z,54.90
2022-08-13T03:16:17.865Z,54.80
2022-08-13T03:16:31.105Z,54.80
2022-08-13T03:16:42.908Z,54.90
2022-08-13T03:16:58.208Z,54.90
2022-08-13T03:17:23.513Z,54.80
2022-08-13T03:17:36.022Z,54.80
2022-08-13T03:17:47.715Z,54.80
2022-08-13T03:18:05.694Z,54.90
2022-08-13T03:18:18.061Z,54.70
2022-08-13T03:18:51.231Z,54.80
2022-08-13T03:19:04.483Z,54.80
2022-08-13T03:19:22.339Z,54.90
2022-08-13T03:19:36.082Z,54.90
2022-08-13T03:19:58.797Z,55.00
2022-08-13T03:20:17.208Z,55.00
2022-08-13T03:20:36.674Z,55.00
2022-08-13T03:20:50.257Z,55.20
2022-08-13T03:21:02.482Z,55.10
2022-08-13T03:21:17.377Z,55.10
2022-08-13T03:21:43.656Z,55.10
2022-08-13T03:21:55.938Z,55.10
2022-08-13T03:22:07.790Z,55.30
2022-08-13T03:22:22.254Z,55.40
2022-08-13T03:23:08.512Z,55.30
2022-08-13T03:23:25.653Z,55.20
2022-08-13T03:23:43.783Z,55.10
2022-08-13T03:23:55.762Z,55.30
2022-08-13T03:24:09.580Z,55.30
2022-08-13T03:24:30.073Z,55.40
2022-08-13T03:24:43.787Z,55.30
2022-08-13T03:24:56.038Z,55.40
2022-08-13T03:25:08.787Z,55.40
2022-08-13T03:25:21.960Z,55.30
2022-08-13T03:25:34.035Z,55.30
2022-08-13T03:25:48.192Z,55.40
2022-08-13T03:25:59.950Z,55.40
2022-08-13T03:26:12.657Z,56.00
2022-08-13T03:26:25.829Z,55.60
2022-08-13T03:26:37.680Z,55.50
2022-08-13T03:26:53.556Z,55.40
2022-08-13T03:27:07.545Z,55.50
2022-08-13T03:27:20.989Z,55.30
2022-08-13T03:27:33.489Z,55.40
2022-08-13T03:27:45.951Z,55.40
2022-08-13T03:28:02.966Z,55.30
2022-08-13T03:28:15.228Z,55.40
2022-08-13T03:28:28.626Z,55.30
2022-08-13T03:28:40.752Z,55.50
2022-08-13T03:29:07.622Z,55.50
2022-08-13T03:29:19.427Z,55.40
2022-08-13T03:30:03.179Z,55.40
2022-08-13T03:30:09.107Z,55.40
2022-08-13T03:30:25.301Z,55.30
2022-08-13T03:30:43.069Z,55.20
2022-08-13T03:31:07.434Z,55.30
2022-08-13T03:31:19.857Z,55.50
2022-08-13T03:31:35.475Z,55.50
2022-08-13T03:32:04.755Z,55.30
2022-08-13T03:32:17.524Z,55.30
2022-08-13T03:32:31.646Z,55.30
2022-08-13T03:32:48.162Z,55.30
2022-08-13T03:33:11.386Z,55.40
2022-08-13T03:33:28.606Z,55.40
2022-08-13T03:34:03.778Z,55.30
2022-08-13T03:34:18.659Z,55.30
2022-08-13T03:34:33.392Z,55.40
2022-08-13T03:34:45.449Z,55.50
2022-08-13T03:34:57.459Z,55.50
2022-08-13T03:35:42.577Z,55.50
2022-08-13T03:35:52.224Z,55.50
2022-08-13T03:36:04.349Z,55.50
2022-08-13T03:36:16.835Z,55.60
2022-08-13T03:36:31.311Z,55.40
2022-08-13T03:36:43.643Z,55.50
2022-08-13T03:36:58.420Z,55.60
2022-08-13T03:37:13.429Z,55.50
2022-08-13T03:37:26.743Z,55.50
2022-08-13T03:37:39.235Z,55.60
2022-08-13T03:38:01.295Z,55.60
2022-08-13T03:38:13.979Z,55.60
2022-08-13T03:38:27.286Z,55.50
2022-08-13T03:38:39.055Z,55.60
2022-08-13T03:38:53.399Z,55.60
2022-08-13T03:39:05.880Z,55.60
2022-08-13T03:39:17.885Z,55.80
2022-08-13T03:39:30.834Z,55.70
2022-08-13T03:39:43.785Z,55.70
2022-08-13T03:39:55.747Z,55.60
2022-08-13T03:40:08.210Z,55.60
2022-08-13T03:40:25.719Z,55.90
2022-08-13T03:41:01.803Z,55.80
2022-08-13T03:41:18.524Z,55.60
2022-08-13T03:41:30.835Z,55.70
2022-08-13T03:41:52.380Z,55.60
2022-08-13T03:42:04.278Z,55.60
2022-08-13T03:42:30.377Z,55.60
2022-08-13T03:42:53.449Z,55.60
2022-08-13T03:43:09.018Z,55.60
2022-08-13T03:43:28.334Z,55.60
2022-08-13T03:43:53.432Z,55.60
2022-08-13T03:44:10.807Z,55.60
2022-08-13T03:44:28.917Z,55.60
2022-08-13T03:44:41.494Z,55.80
2022-08-13T03:44:53.214Z,56.00
2022-08-13T03:45:05.290Z,55.90
2022-08-13T03:45:17.973Z,56.00
2022-08-13T03:45:31.337Z,56.20
2022-08-13T03:45:46.483Z,56.00
2022-08-13T03:46:01.550Z,55.90
2022-08-13T03:46:15.334Z,56.00
2022-08-13T03:46:29.721Z,56.10
2022-08-13T03:46:42.992Z,56.20
2022-08-13T03:46:55.045Z,56.20
2022-08-13T03:47:31.008Z,56.30
2022-08-13T03:47:40.061Z,56.20
2022-08-13T03:47:52.895Z,56.10
2022-08-13T03:48:05.407Z,56.20